Bataysk — UBXE3 — position and weather

sailwx.info

Track history (hours):
 
Tides and Currents Weather Stations Pressure Air Temp Water Temp Dewpoint Dewpoint Depression Visibility Wind Speed Wind Dir Waves Ship Positions

Bataysk

Last reported at 2017-Oct-19 13:59 UTC. Time now 2017-Oct-19 14:46 UTC.
Position N 45°28' E 036°38'.

Length 130 m; draft 3.8 m.

Type: Cargo ship. MMSI: 273347320.

Date/timePositionNaut miles runAvg speedWind from/ knotsBaromVisibWave heightAir tempDewpointWater temp
2017-Oct-19 13:59N 45°28' E 036°38'0 0.0
2017-Oct-19 13:29N 45°28' E 036°38'0 0.0
2017-Oct-19 12:56N 45°28' E 036°38'0 0.0
2017-Oct-19 12:29N 45°28' E 036°38'0 0.0
2017-Oct-19 11:59N 45°28' E 036°38'0 0.0
2017-Oct-19 11:29N 45°28' E 036°38'0 0.1
2017-Oct-19 10:59N 45°28' E 036°39'0 0.0
2017-Oct-19 10:26N 45°28' E 036°39'0 0.0
2017-Oct-19 09:56N 45°28' E 036°39'0 0.1
2017-Oct-19 09:29N 45°28' E 036°38'0 0.0
2017-Oct-19 08:59N 45°28' E 036°38'0 0.0
2017-Oct-19 08:29N 45°28' E 036°38'0 0.0
2017-Oct-19 07:59N 45°28' E 036°39'0 0.0
2017-Oct-19 07:26N 45°28' E 036°39'0 0.0
2017-Oct-19 06:59N 45°28' E 036°39'0 0.0
2017-Oct-19 06:29N 45°28' E 036°39'0 0.0
2017-Oct-19 05:59N 45°28' E 036°39'0 0.0
2017-Oct-19 05:29N 45°28' E 036°39'0 0.0
2017-Oct-19 04:53N 45°28' E 036°39'0 0.0
2017-Oct-19 04:29N 45°28' E 036°39'0 0.0
2017-Oct-19 03:59N 45°28' E 036°39'0 0.0
2017-Oct-19 03:29N 45°28' E 036°38'0 0.0
2017-Oct-19 02:59N 45°28' E 036°38'0 0.0
2017-Oct-19 02:29N 45°28' E 036°38'0 0.0
2017-Oct-19 01:59N 45°28' E 036°38'0 0.0
2017-Oct-19 01:29N 45°28' E 036°38'0 0.0
2017-Oct-19 00:59N 45°28' E 036°38'0 0.0
2017-Oct-19 00:26N 45°28' E 036°38'0 0.0
2017-Oct-18 23:53N 45°28' E 036°38'0 0.0
2017-Oct-18 23:30N 45°28' E 036°38'2 3.3
2017-Oct-18 23:00N 45°29' E 036°40'3 5.8
2017-Oct-18 22:31N 45°30' E 036°44'  
2017-Oct-15 05:30N 45°32' E 036°47'3 5.8
2017-Oct-15 04:59N 45°30' E 036°44'3 5.5
2017-Oct-15 04:30N 45°27' E 036°42'3 5.4
2017-Oct-15 04:00N 45°25' E 036°41'3 5.7
2017-Oct-15 03:30N 45°22' E 036°40'3 6.5
2017-Oct-15 03:00N 45°20' E 036°36'3 6.8
2017-Oct-15 02:30N 45°19' E 036°32'3 6.1
2017-Oct-15 02:00N 45°17' E 036°29'3 6.0
2017-Oct-15 01:30N 45°14' E 036°29'3 5.7
2017-Oct-15 00:59N 45°11' E 036°29'3 3.6
2017-Oct-15 00:04N 45°08' E 036°31'0 0.6
2017-Oct-15 00:00N 45°08' E 036°31'  
2017-Oct-12 04:26N 45°08' E 036°31'1 0.1
2017-Oct-11 20:10N 45°08' E 036°31'2 4.2
2017-Oct-11 19:42N 45°10' E 036°32'0 2.4
2017-Oct-11 19:29N 45°10' E 036°33'0 0.3
2017-Oct-11 18:59N 45°10' E 036°33'0 0.0
2017-Oct-11 17:14N 45°10' E 036°33'0 0.0
2017-Oct-11 16:56N 45°10' E 036°33'1 0.1
2017-Oct-10 23:58N 45°09' E 036°32'0 0.0
2017-Oct-10 23:28N 45°09' E 036°32'0 0.0
2017-Oct-10 21:49N 45°09' E 036°32'0 0.0
2017-Oct-10 20:49N 45°09' E 036°32'0 0.0
2017-Oct-10 20:28N 45°09' E 036°32'0 0.0
2017-Oct-10 19:58N 45°09' E 036°32'0 0.0
2017-Oct-10 18:37N 45°09' E 036°32'0 0.1
2017-Oct-10 18:19N 45°09' E 036°32'0 0.0
2017-Oct-10 17:55N 45°09' E 036°32'0 0.0
2017-Oct-10 17:25N 45°09' E 036°32'0 0.0
2017-Oct-10 09:47N 45°09' E 036°32'2 4.4
2017-Oct-10 09:17N 45°10' E 036°30'2 5.5
2017-Oct-10 08:55N 45°11' E 036°28'3 6.4
2017-Oct-10 08:30N 45°14' E 036°28'3 5.9
2017-Oct-10 08:00N 45°17' E 036°29'3 5.2
2017-Oct-10 07:30N 45°19' E 036°31'3 5.9
2017-Oct-10 07:00N 45°20' E 036°35'3 5.6
2017-Oct-10 06:30N 45°21' E 036°39'3 5.5
2017-Oct-10 06:00N 45°24' E 036°40'3 5.1
2017-Oct-10 05:30N 45°26' E 036°41'3 5.3
2017-Oct-10 05:00N 45°29' E 036°41'2 5.0
2017-Oct-10 04:30N 45°31' E 036°39'  
Track history (hours):
 
Tides and Currents Weather Stations Pressure Air Temp Water Temp Dewpoint Dewpoint Depression Visibility Wind Speed Wind Dir Waves Ship Positions

Bataysk

Last reported at 2017-Oct-19 13:59 UTC. Time now 2017-Oct-19 14:46 UTC.
Position N 45°28' E 036°38'.

Length 130 m; draft 3.8 m.

Type: Cargo ship. MMSI: 273347320.

Date/timePositionNaut miles runAvg speedWind from/ knotsBaromVisibWave heightAir tempDewpointWater temp
2017-Oct-19 13:59N 45°28' E 036°38'0 0.0
2017-Oct-19 13:29N 45°28' E 036°38'0 0.0
2017-Oct-19 12:56N 45°28' E 036°38'0 0.0
2017-Oct-19 12:29N 45°28' E 036°38'0 0.0
2017-Oct-19 11:59N 45°28' E 036°38'0 0.0
2017-Oct-19 11:29N 45°28' E 036°38'0 0.1
2017-Oct-19 10:59N 45°28' E 036°39'0 0.0
2017-Oct-19 10:26N 45°28' E 036°39'0 0.0
2017-Oct-19 09:56N 45°28' E 036°39'0 0.1
2017-Oct-19 09:29N 45°28' E 036°38'0 0.0
2017-Oct-19 08:59N 45°28' E 036°38'0 0.0
2017-Oct-19 08:29N 45°28' E 036°38'0 0.0
2017-Oct-19 07:59N 45°28' E 036°39'0 0.0
2017-Oct-19 07:26N 45°28' E 036°39'0 0.0
2017-Oct-19 06:59N 45°28' E 036°39'0 0.0
2017-Oct-19 06:29N 45°28' E 036°39'0 0.0
2017-Oct-19 05:59N 45°28' E 036°39'0 0.0
2017-Oct-19 05:29N 45°28' E 036°39'0 0.0
2017-Oct-19 04:53N 45°28' E 036°39'0 0.0
2017-Oct-19 04:29N 45°28' E 036°39'0 0.0
2017-Oct-19 03:59N 45°28' E 036°39'0 0.0
2017-Oct-19 03:29N 45°28' E 036°38'0 0.0
2017-Oct-19 02:59N 45°28' E 036°38'0 0.0
2017-Oct-19 02:29N 45°28' E 036°38'0 0.0
2017-Oct-19 01:59N 45°28' E 036°38'0 0.0
2017-Oct-19 01:29N 45°28' E 036°38'0 0.0
2017-Oct-19 00:59N 45°28' E 036°38'0 0.0
2017-Oct-19 00:26N 45°28' E 036°38'0 0.0
2017-Oct-18 23:53N 45°28' E 036°38'0 0.0
2017-Oct-18 23:30N 45°28' E 036°38'2 3.3
2017-Oct-18 23:00N 45°29' E 036°40'3 5.8
2017-Oct-18 22:31N 45°30' E 036°44'  
2017-Oct-15 05:30N 45°32' E 036°47'3 5.8
2017-Oct-15 04:59N 45°30' E 036°44'3 5.5
2017-Oct-15 04:30N 45°27' E 036°42'3 5.4
2017-Oct-15 04:00N 45°25' E 036°41'3 5.7
2017-Oct-15 03:30N 45°22' E 036°40'3 6.5
2017-Oct-15 03:00N 45°20' E 036°36'3 6.8
2017-Oct-15 02:30N 45°19' E 036°32'3 6.1
2017-Oct-15 02:00N 45°17' E 036°29'3 6.0
2017-Oct-15 01:30N 45°14' E 036°29'3 5.7
2017-Oct-15 00:59N 45°11' E 036°29'3 3.6
2017-Oct-15 00:04N 45°08' E 036°31'0 0.6
2017-Oct-15 00:00N 45°08' E 036°31'  
2017-Oct-12 04:26N 45°08' E 036°31'1 0.1
2017-Oct-11 20:10N 45°08' E 036°31'2 4.2
2017-Oct-11 19:42N 45°10' E 036°32'0 2.4
2017-Oct-11 19:29N 45°10' E 036°33'0 0.3
2017-Oct-11 18:59N 45°10' E 036°33'0 0.0
2017-Oct-11 17:14N 45°10' E 036°33'0 0.0
2017-Oct-11 16:56N 45°10' E 036°33'1 0.1
2017-Oct-10 23:58N 45°09' E 036°32'0 0.0
2017-Oct-10 23:28N 45°09' E 036°32'0 0.0
2017-Oct-10 21:49N 45°09' E 036°32'0 0.0
2017-Oct-10 20:49N 45°09' E 036°32'0 0.0
2017-Oct-10 20:28N 45°09' E 036°32'0 0.0
2017-Oct-10 19:58N 45°09' E 036°32'0 0.0
2017-Oct-10 18:37N 45°09' E 036°32'0 0.1
2017-Oct-10 18:19N 45°09' E 036°32'0 0.0
2017-Oct-10 17:55N 45°09' E 036°32'0 0.0
2017-Oct-10 17:25N 45°09' E 036°32'0 0.0
2017-Oct-10 09:47N 45°09' E 036°32'2 4.4
2017-Oct-10 09:17N 45°10' E 036°30'2 5.5
2017-Oct-10 08:55N 45°11' E 036°28'3 6.4
2017-Oct-10 08:30N 45°14' E 036°28'3 5.9
2017-Oct-10 08:00N 45°17' E 036°29'3 5.2
2017-Oct-10 07:30N 45°19' E 036°31'3 5.9
2017-Oct-10 07:00N 45°20' E 036°35'3 5.6
2017-Oct-10 06:30N 45°21' E 036°39'3 5.5
2017-Oct-10 06:00N 45°24' E 036°40'3 5.1
2017-Oct-10 05:30N 45°26' E 036°41'3 5.3
2017-Oct-10 05:00N 45°29' E 036°41'2 5.0
2017-Oct-10 04:30N 45°31' E 036°39'  

Dump ship's entire track history